sensor_id;sensor_type;location;lat;lon;timestamp;temperature;humidity
24678;DHT22;12800;53.094;8.778;2022-12-29T00:01:57;10.70;91.50
24678;DHT22;12800;53.094;8.778;2022-12-29T00:04:22;10.80;91.50
24678;DHT22;12800;53.094;8.778;2022-12-29T00:06:48;10.80;91.50
24678;DHT22;12800;53.094;8.778;2022-12-29T00:09:15;10.80;91.50
24678;DHT22;12800;53.094;8.778;2022-12-29T00:11:41;10.80;91.40
24678;DHT22;12800;53.094;8.778;2022-12-29T00:14:10;10.80;91.40
24678;DHT22;12800;53.094;8.778;2022-12-29T00:16:55;10.80;91.40
24678;DHT22;12800;53.094;8.778;2022-12-29T00:19:20;10.80;91.40
24678;DHT22;12800;53.094;8.778;2022-12-29T00:22:05;10.80;91.40
24678;DHT22;12800;53.094;8.778;2022-12-29T00:24:49;10.80;91.40
24678;DHT22;12800;53.094;8.778;2022-12-29T00:27:27;10.80;91.40
24678;DHT22;12800;53.094;8.778;2022-12-29T00:30:14;10.80;91.40
24678;DHT22;12800;53.094;8.778;2022-12-29T00:32:58;10.80;91.40
24678;DHT22;12800;53.094;8.778;2022-12-29T00:35:51;10.80;91.40
24678;DHT22;12800;53.094;8.778;2022-12-29T00:38:18;10.90;91.50
24678;DHT22;12800;53.094;8.778;2022-12-29T00:41:02;10.90;91.50
24678;DHT22;12800;53.094;8.778;2022-12-29T00:43:47;10.90;91.50
24678;DHT22;12800;53.094;8.778;2022-12-29T00:46:34;10.90;91.50
24678;DHT22;12800;53.094;8.778;2022-12-29T00:49:00;10.90;91.50
24678;DHT22;12800;53.094;8.778;2022-12-29T00:51:45;10.90;91.50
24678;DHT22;12800;53.094;8.778;2022-12-29T00:54:11;11.00;91.60
24678;DHT22;12800;53.094;8.778;2022-12-29T00:56:36;11.00;91.60
24678;DHT22;12800;53.094;8.778;2022-12-29T00:59:06;11.00;91.60
24678;DHT22;12800;53.094;8.778;2022-12-29T01:01:32;11.00;91.60
24678;DHT22;12800;53.094;8.778;2022-12-29T01:03:58;11.00;91.70
24678;DHT22;12800;53.094;8.778;2022-12-29T01:06:23;11.00;91.70
24678;DHT22;12800;53.094;8.778;2022-12-29T01:08:49;11.00;91.70
24678;DHT22;12800;53.094;8.778;2022-12-29T01:11:34;11.00;91.70
24678;DHT22;12800;53.094;8.778;2022-12-29T01:14:00;11.10;91.70
24678;DHT22;12800;53.094;8.778;2022-12-29T01:16:25;11.00;91.70
24678;DHT22;12800;53.094;8.778;2022-12-29T01:18:51;11.00;91.70
24678;DHT22;12800;53.094;8.778;2022-12-29T01:21:17;11.00;91.60
24678;DHT22;12800;53.094;8.778;2022-12-29T01:23:42;11.10;91.70
24678;DHT22;12800;53.094;8.778;2022-12-29T01:26:12;11.10;91.60
24678;DHT22;12800;53.094;8.778;2022-12-29T01:28:38;11.10;91.60
24678;DHT22;12800;53.094;8.778;2022-12-29T01:31:06;11.10;91.60
24678;DHT22;12800;53.094;8.778;2022-12-29T01:33:32;11.20;91.60
24678;DHT22;12800;53.094;8.778;2022-12-29T01:36:01;11.20;91.60
24678;DHT22;12800;53.094;8.778;2022-12-29T01:38:27;11.20;91.50
24678;DHT22;12800;53.094;8.778;2022-12-29T01:40:53;11.20;91.50
24678;DHT22;12800;53.094;8.778;2022-12-29T01:43:18;11.20;91.50
24678;DHT22;12800;53.094;8.778;2022-12-29T01:45:48;11.20;91.50
24678;DHT22;12800;53.094;8.778;2022-12-29T01:48:16;11.20;91.50
24678;DHT22;12800;53.094;8.778;2022-12-29T01:50:46;11.30;91.50
24678;DHT22;12800;53.094;8.778;2022-12-29T01:53:22;11.30;91.50
24678;DHT22;12800;53.094;8.778;2022-12-29T01:55:53;11.30;91.50
24678;DHT22;12800;53.094;8.778;2022-12-29T01:58:22;11.30;91.40
24678;DHT22;12800;53.094;8.778;2022-12-29T02:00:48;11.30;91.40
24678;DHT22;12800;53.094;8.778;2022-12-29T02:03:15;11.30;91.40
24678;DHT22;12800;53.094;8.778;2022-12-29T02:05:53;11.30;91.40
24678;DHT22;12800;53.094;8.778;2022-12-29T02:08:23;11.30;91.40
24678;DHT22;12800;53.094;8.778;2022-12-29T02:10:50;11.30;91.30
24678;DHT22;12800;53.094;8.778;2022-12-29T02:13:16;11.30;91.30
24678;DHT22;12800;53.094;8.778;2022-12-29T02:24:22;11.40;91.20
24678;DHT22;12800;53.094;8.778;2022-12-29T02:32:49;11.40;91.30
24678;DHT22;12800;53.094;8.778;2022-12-29T02:35:18;11.50;91.30
24678;DHT22;12800;53.094;8.778;2022-12-29T02:43:13;11.60;91.10
24678;DHT22;12800;53.094;8.778;2022-12-29T02:45:55;11.60;91.00
24678;DHT22;12800;53.094;8.778;2022-12-29T02:48:43;11.60;90.90
24678;DHT22;12800;53.094;8.778;2022-12-29T02:51:23;11.60;90.90
24678;DHT22;12800;53.094;8.778;2022-12-29T02:53:52;11.60;90.80
24678;DHT22;12800;53.094;8.778;2022-12-29T02:56:37;11.60;90.80
24678;DHT22;12800;53.094;8.778;2022-12-29T02:59:03;11.60;90.80
24678;DHT22;12800;53.094;8.778;2022-12-29T03:04:07;11.60;90.80
24678;DHT22;12800;53.094;8.778;2022-12-29T03:06:52;11.60;90.80
24678;DHT22;12800;53.094;8.778;2022-12-29T03:09:38;11.60;90.80
24678;DHT22;12800;53.094;8.778;2022-12-29T03:14:57;11.60;90.80
24678;DHT22;12800;53.094;8.778;2022-12-29T03:20:21;11.60;90.80
24678;DHT22;12800;53.094;8.778;2022-12-29T03:22:49;11.60;90.80
24678;DHT22;12800;53.094;8.778;2022-12-29T03:25:23;11.60;90.80
24678;DHT22;12800;53.094;8.778;2022-12-29T03:28:01;11.60;90.80
24678;DHT22;12800;53.094;8.778;2022-12-29T03:30:29;11.60;90.80
24678;DHT22;12800;53.094;8.778;2022-12-29T03:32:59;11.60;90.80
24678;DHT22;12800;53.094;8.778;2022-12-29T03:35:27;11.60;90.80
24678;DHT22;12800;53.094;8.778;2022-12-29T03:40:33;11.60;90.80
24678;DHT22;12800;53.094;8.778;2022-12-29T03:43:01;11.60;91.10
24678;DHT22;12800;53.094;8.778;2022-12-29T03:45:27;11.60;90.80
24678;DHT22;12800;53.094;8.778;2022-12-29T03:47:53;11.60;90.80
24678;DHT22;12800;53.094;8.778;2022-12-29T03:50:19;11.60;90.80
24678;DHT22;12800;53.094;8.778;2022-12-29T03:52:44;11.60;91.20
24678;DHT22;12800;53.094;8.778;2022-12-29T03:55:10;11.60;90.90
24678;DHT22;12800;53.094;8.778;2022-12-29T03:57:36;11.60;91.00
24678;DHT22;12800;53.094;8.778;2022-12-29T04:00:03;11.60;91.10
24678;DHT22;12800;53.094;8.778;2022-12-29T04:02:29;11.60;91.20
24678;DHT22;12800;53.094;8.778;2022-12-29T04:04:55;11.60;91.30
24678;DHT22;12800;53.094;8.778;2022-12-29T04:07:21;11.60;91.40
24678;DHT22;12800;53.094;8.778;2022-12-29T04:09:46;11.60;91.50
24678;DHT22;12800;53.094;8.778;2022-12-29T04:12:12;11.60;91.50
24678;DHT22;12800;53.094;8.778;2022-12-29T04:14:38;11.60;91.60
24678;DHT22;12800;53.094;8.778;2022-12-29T04:17:04;11.60;91.70
24678;DHT22;12800;53.094;8.778;2022-12-29T04:19:29;11.50;91.70
24678;DHT22;12800;53.094;8.778;2022-12-29T04:21:55;11.50;91.80
24678;DHT22;12800;53.094;8.778;2022-12-29T04:24:21;11.50;91.90
24678;DHT22;12800;53.094;8.778;2022-12-29T04:26:46;11.50;92.00
24678;DHT22;12800;53.094;8.778;2022-12-29T04:29:12;11.50;92.00
24678;DHT22;12800;53.094;8.778;2022-12-29T04:31:37;11.50;92.00
24678;DHT22;12800;53.094;8.778;2022-12-29T04:34:03;11.50;92.10
24678;DHT22;12800;53.094;8.778;2022-12-29T04:36:29;11.50;92.10
24678;DHT22;12800;53.094;8.778;2022-12-29T04:38:54;11.50;92.10
24678;DHT22;12800;53.094;8.778;2022-12-29T04:41:20;11.50;92.10
24678;DHT22;12800;53.094;8.778;2022-12-29T04:43:45;11.50;92.10
24678;DHT22;12800;53.094;8.778;2022-12-29T04:46:11;11.50;92.10
24678;DHT22;12800;53.094;8.778;2022-12-29T04:48:36;11.50;92.10
24678;DHT22;12800;53.094;8.778;2022-12-29T04:51:02;11.50;92.10
24678;DHT22;12800;53.094;8.778;2022-12-29T04:53:28;11.50;92.10
24678;DHT22;12800;53.094;8.778;2022-12-29T04:55:53;11.50;92.10
24678;DHT22;12800;53.094;8.778;2022-12-29T04:58:19;11.60;92.10
24678;DHT22;12800;53.094;8.778;2022-12-29T05:00:45;11.60;92.10
24678;DHT22;12800;53.094;8.778;2022-12-29T05:03:11;11.60;92.00
24678;DHT22;12800;53.094;8.778;2022-12-29T05:05:36;11.60;92.00
24678;DHT22;12800;53.094;8.778;2022-12-29T05:08:02;11.60;91.90
24678;DHT22;12800;53.094;8.778;2022-12-29T05:10:28;11.60;91.80
24678;DHT22;12800;53.094;8.778;2022-12-29T05:12:53;11.60;91.80
24678;DHT22;12800;53.094;8.778;2022-12-29T05:15:19;11.70;91.80
24678;DHT22;12800;53.094;8.778;2022-12-29T05:17:45;11.70;91.70
24678;DHT22;12800;53.094;8.778;2022-12-29T05:20:10;11.70;91.70
24678;DHT22;12800;53.094;8.778;2022-12-29T05:22:36;11.70;91.70
24678;DHT22;12800;53.094;8.778;2022-12-29T05:25:02;11.70;91.70
24678;DHT22;12800;53.094;8.778;2022-12-29T05:27:28;11.70;91.70
24678;DHT22;12800;53.094;8.778;2022-12-29T05:29:53;11.70;91.80
24678;DHT22;12800;53.094;8.778;2022-12-29T05:32:19;11.70;92.10
24678;DHT22;12800;53.094;8.778;2022-12-29T05:34:45;11.70;91.80
24678;DHT22;12800;53.094;8.778;2022-12-29T05:37:10;11.60;91.80
24678;DHT22;12800;53.094;8.778;2022-12-29T05:39:36;11.60;91.90
24678;DHT22;12800;53.094;8.778;2022-12-29T05:42:02;11.60;91.90
24678;DHT22;12800;53.094;8.778;2022-12-29T05:44:27;11.50;91.90
24678;DHT22;12800;53.094;8.778;2022-12-29T05:46:53;11.50;91.90
24678;DHT22;12800;53.094;8.778;2022-12-29T05:49:19;11.50;91.90
24678;DHT22;12800;53.094;8.778;2022-12-29T05:51:44;11.50;91.90
24678;DHT22;12800;53.094;8.778;2022-12-29T05:54:10;11.50;92.00
24678;DHT22;12800;53.094;8.778;2022-12-29T05:56:35;11.50;92.00
24678;DHT22;12800;53.094;8.778;2022-12-29T05:59:01;11.50;92.00
24678;DHT22;12800;53.094;8.778;2022-12-29T06:01:27;11.50;92.00
24678;DHT22;12800;53.094;8.778;2022-12-29T06:03:52;11.50;92.00
24678;DHT22;12800;53.094;8.778;2022-12-29T06:06:18;11.50;92.00
24678;DHT22;12800;53.094;8.778;2022-12-29T06:08:43;11.50;92.00
24678;DHT22;12800;53.094;8.778;2022-12-29T06:11:09;11.50;92.00
24678;DHT22;12800;53.094;8.778;2022-12-29T06:13:35;11.50;92.00
24678;DHT22;12800;53.094;8.778;2022-12-29T06:16:01;11.50;92.10
24678;DHT22;12800;53.094;8.778;2022-12-29T06:18:27;11.60;92.00
24678;DHT22;12800;53.094;8.778;2022-12-29T06:20:53;11.60;92.10
24678;DHT22;12800;53.094;8.778;2022-12-29T06:23:18;11.60;92.00
24678;DHT22;12800;53.094;8.778;2022-12-29T06:25:44;11.60;92.10
24678;DHT22;12800;53.094;8.778;2022-12-29T06:28:11;11.60;92.10
24678;DHT22;12800;53.094;8.778;2022-12-29T06:30:37;11.60;92.10
24678;DHT22;12800;53.094;8.778;2022-12-29T06:33:03;11.60;92.20
24678;DHT22;12800;53.094;8.778;2022-12-29T06:35:29;11.60;92.10
24678;DHT22;12800;53.094;8.778;2022-12-29T06:37:55;11.60;92.10
24678;DHT22;12800;53.094;8.778;2022-12-29T06:40:20;11.60;92.10
24678;DHT22;12800;53.094;8.778;2022-12-29T06:42:47;11.60;92.10
24678;DHT22;12800;53.094;8.778;2022-12-29T06:45:12;11.60;92.10
24678;DHT22;12800;53.094;8.778;2022-12-29T06:47:38;11.50;92.10
24678;DHT22;12800;53.094;8.778;2022-12-29T06:50:04;11.50;92.20
24678;DHT22;12800;53.094;8.778;2022-12-29T06:52:29;11.50;92.20
24678;DHT22;12800;53.094;8.778;2022-12-29T06:54:55;11.50;92.30
24678;DHT22;12800;53.094;8.778;2022-12-29T06:57:21;11.40;92.30
24678;DHT22;12800;53.094;8.778;2022-12-29T06:59:47;11.40;92.40
24678;DHT22;12800;53.094;8.778;2022-12-29T07:02:13;11.40;92.50
24678;DHT22;12800;53.094;8.778;2022-12-29T07:04:43;11.40;92.50
24678;DHT22;12800;53.094;8.778;2022-12-29T07:07:09;11.40;92.50
24678;DHT22;12800;53.094;8.778;2022-12-29T07:09:34;11.40;92.50
24678;DHT22;12800;53.094;8.778;2022-12-29T07:12:00;11.40;92.40
24678;DHT22;12800;53.094;8.778;2022-12-29T07:14:25;11.40;92.40
24678;DHT22;12800;53.094;8.778;2022-12-29T07:16:51;11.40;92.40
24678;DHT22;12800;53.094;8.778;2022-12-29T07:19:17;11.40;92.40
24678;DHT22;12800;53.094;8.778;2022-12-29T07:21:42;11.40;92.30
24678;DHT22;12800;53.094;8.778;2022-12-29T07:24:09;11.30;92.30
24678;DHT22;12800;53.094;8.778;2022-12-29T07:26:34;11.30;92.30
24678;DHT22;12800;53.094;8.778;2022-12-29T07:29:02;11.30;92.30
24678;DHT22;12800;53.094;8.778;2022-12-29T07:31:28;11.30;92.20
24678;DHT22;12800;53.094;8.778;2022-12-29T07:33:54;11.30;92.20
24678;DHT22;12800;53.094;8.778;2022-12-29T07:36:19;11.30;92.20
24678;DHT22;12800;53.094;8.778;2022-12-29T07:38:45;11.20;92.10
24678;DHT22;12800;53.094;8.778;2022-12-29T07:41:10;11.20;92.10
24678;DHT22;12800;53.094;8.778;2022-12-29T07:43:36;11.20;92.00
24678;DHT22;12800;53.094;8.778;2022-12-29T07:46:02;11.10;92.00
24678;DHT22;12800;53.094;8.778;2022-12-29T07:48:27;11.10;92.00
24678;DHT22;12800;53.094;8.778;2022-12-29T07:50:53;11.10;92.00
24678;DHT22;12800;53.094;8.778;2022-12-29T07:53:19;11.10;92.00
24678;DHT22;12800;53.094;8.778;2022-12-29T07:55:45;11.10;92.00
24678;DHT22;12800;53.094;8.778;2022-12-29T07:58:10;11.10;92.00
24678;DHT22;12800;53.094;8.778;2022-12-29T08:00:37;11.10;92.00
24678;DHT22;12800;53.094;8.778;2022-12-29T08:03:03;11.10;91.90
24678;DHT22;12800;53.094;8.778;2022-12-29T08:05:30;11.10;91.80
24678;DHT22;12800;53.094;8.778;2022-12-29T08:07:56;11.10;91.80
24678;DHT22;12800;53.094;8.778;2022-12-29T08:10:22;11.10;91.70
24678;DHT22;12800;53.094;8.778;2022-12-29T08:12:48;11.10;91.60
24678;DHT22;12800;53.094;8.778;2022-12-29T08:15:14;11.10;91.60
24678;DHT22;12800;53.094;8.778;2022-12-29T08:17:40;11.10;91.40
24678;DHT22;12800;53.094;8.778;2022-12-29T08:20:06;11.00;91.40
24678;DHT22;12800;53.094;8.778;2022-12-29T08:22:32;11.10;91.30
24678;DHT22;12800;53.094;8.778;2022-12-29T08:24:57;11.10;91.20
24678;DHT22;12800;53.094;8.778;2022-12-29T08:27:23;11.10;91.10
24678;DHT22;12800;53.094;8.778;2022-12-29T08:29:48;11.10;91.10
24678;DHT22;12800;53.094;8.778;2022-12-29T08:32:14;11.10;91.00
24678;DHT22;12800;53.094;8.778;2022-12-29T08:34:40;11.10;90.90
24678;DHT22;12800;53.094;8.778;2022-12-29T08:37:05;11.10;90.90
24678;DHT22;12800;53.094;8.778;2022-12-29T08:39:31;11.10;90.80
24678;DHT22;12800;53.094;8.778;2022-12-29T08:41:57;11.00;90.70
24678;DHT22;12800;53.094;8.778;2022-12-29T08:44:23;11.10;90.70
24678;DHT22;12800;53.094;8.778;2022-12-29T08:46:48;11.10;90.60
24678;DHT22;12800;53.094;8.778;2022-12-29T08:49:14;11.10;90.60
24678;DHT22;12800;53.094;8.778;2022-12-29T08:51:40;11.10;90.50
24678;DHT22;12800;53.094;8.778;2022-12-29T08:54:05;11.10;90.50
24678;DHT22;12800;53.094;8.778;2022-12-29T08:56:31;11.10;90.50
24678;DHT22;12800;53.094;8.778;2022-12-29T08:58:57;11.10;90.50
24678;DHT22;12800;53.094;8.778;2022-12-29T09:01:23;11.10;90.80
24678;DHT22;12800;53.094;8.778;2022-12-29T09:03:49;11.20;90.40
24678;DHT22;12800;53.094;8.778;2022-12-29T09:06:16;11.20;90.40
24678;DHT22;12800;53.094;8.778;2022-12-29T09:08:42;11.20;90.30
24678;DHT22;12800;53.094;8.778;2022-12-29T09:11:18;11.30;90.60
24678;DHT22;12800;53.094;8.778;2022-12-29T09:13:44;11.30;90.10
24678;DHT22;12800;53.094;8.778;2022-12-29T09:16:10;11.30;90.00
24678;DHT22;12800;53.094;8.778;2022-12-29T09:18:36;11.30;89.80
24678;DHT22;12800;53.094;8.778;2022-12-29T09:21:04;11.30;89.70
24678;DHT22;12800;53.094;8.778;2022-12-29T09:23:31;11.30;89.50
24678;DHT22;12800;53.094;8.778;2022-12-29T09:25:57;11.30;89.20
24678;DHT22;12800;53.094;8.778;2022-12-29T09:28:23;11.30;89.10
24678;DHT22;12800;53.094;8.778;2022-12-29T09:30:49;11.30;89.00
24678;DHT22;12800;53.094;8.778;2022-12-29T09:33:15;11.30;88.70
24678;DHT22;12800;53.094;8.778;2022-12-29T09:35:45;11.30;88.70
24678;DHT22;12800;53.094;8.778;2022-12-29T09:38:11;11.30;88.60
24678;DHT22;12800;53.094;8.778;2022-12-29T09:40:38;11.30;89.20
24678;DHT22;12800;53.094;8.778;2022-12-29T09:48:40;11.30;88.00
24678;DHT22;12800;53.094;8.778;2022-12-29T09:51:16;11.40;88.60
24678;DHT22;12800;53.094;8.778;2022-12-29T09:53:52;11.50;89.10
24678;DHT22;12800;53.094;8.778;2022-12-29T09:56:22;11.60;88.50
24678;DHT22;12800;53.094;8.778;2022-12-29T09:59:10;11.60;88.30
24678;DHT22;12800;53.094;8.778;2022-12-29T10:04:08;11.80;87.70
24678;DHT22;12800;53.094;8.778;2022-12-29T10:12:17;12.00;87.10
24678;DHT22;12800;53.094;8.778;2022-12-29T10:15:10;12.00;86.90
24678;DHT22;12800;53.094;8.778;2022-12-29T10:25:42;12.20;86.00
24678;DHT22;12800;53.094;8.778;2022-12-29T10:28:38;12.20;85.80
24678;DHT22;12800;53.094;8.778;2022-12-29T10:31:18;12.20;85.20
24678;DHT22;12800;53.094;8.778;2022-12-29T10:33:49;12.20;84.70
24678;DHT22;12800;53.094;8.778;2022-12-29T10:39:16;12.20;83.70
24678;DHT22;12800;53.094;8.778;2022-12-29T10:41:55;12.10;83.50
24678;DHT22;12800;53.094;8.778;2022-12-29T10:44:25;12.10;83.40
24678;DHT22;12800;53.094;8.778;2022-12-29T10:47:05;12.00;83.30
24678;DHT22;12800;53.094;8.778;2022-12-29T10:49:35;12.00;83.60
24678;DHT22;12800;53.094;8.778;2022-12-29T10:52:03;12.00;83.80
24678;DHT22;12800;53.094;8.778;2022-12-29T10:54:33;11.90;83.90
24678;DHT22;12800;53.094;8.778;2022-12-29T10:57:10;11.90;84.20
24678;DHT22;12800;53.094;8.778;2022-12-29T10:59:37;11.90;84.40
24678;DHT22;12800;53.094;8.778;2022-12-29T11:07:21;11.90;84.80
24678;DHT22;12800;53.094;8.778;2022-12-29T11:09:47;11.90;84.90
24678;DHT22;12800;53.094;8.778;2022-12-29T11:14:47;11.90;85.00
24678;DHT22;12800;53.094;8.778;2022-12-29T11:17:17;11.90;85.00
24678;DHT22;12800;53.094;8.778;2022-12-29T11:19:43;11.90;85.00
24678;DHT22;12800;53.094;8.778;2022-12-29T11:22:35;11.90;85.10
24678;DHT22;12800;53.094;8.778;2022-12-29T11:25:12;11.90;85.00
24678;DHT22;12800;53.094;8.778;2022-12-29T11:27:38;12.00;84.70
24678;DHT22;12800;53.094;8.778;2022-12-29T11:30:22;12.00;84.50
24678;DHT22;12800;53.094;8.778;2022-12-29T11:32:53;12.00;84.20
24678;DHT22;12800;53.094;8.778;2022-12-29T11:35:36;12.00;84.10
24678;DHT22;12800;53.094;8.778;2022-12-29T11:38:04;12.10;83.80
24678;DHT22;12800;53.094;8.778;2022-12-29T11:40:30;12.10;84.60
24678;DHT22;12800;53.094;8.778;2022-12-29T11:42:59;12.20;83.90
24678;DHT22;12800;53.094;8.778;2022-12-29T11:45:30;12.20;83.70
24678;DHT22;12800;53.094;8.778;2022-12-29T11:48:01;12.20;83.10
24678;DHT22;12800;53.094;8.778;2022-12-29T11:50:33;12.20;82.80
24678;DHT22;12800;53.094;8.778;2022-12-29T11:53:16;12.20;82.70
24678;DHT22;12800;53.094;8.778;2022-12-29T11:55:51;12.20;82.50
24678;DHT22;12800;53.094;8.778;2022-12-29T11:58:18;12.20;82.20
24678;DHT22;12800;53.094;8.778;2022-12-29T12:00:44;12.20;81.90
24678;DHT22;12800;53.094;8.778;2022-12-29T12:03:19;12.20;81.90
24678;DHT22;12800;53.094;8.778;2022-12-29T12:08:40;12.20;81.60
24678;DHT22;12800;53.094;8.778;2022-12-29T12:11:29;12.20;81.40
24678;DHT22;12800;53.094;8.778;2022-12-29T12:14:23;12.20;81.20
24678;DHT22;12800;53.094;8.778;2022-12-29T12:16:55;12.20;81.10
24678;DHT22;12800;53.094;8.778;2022-12-29T12:24:44;12.10;80.90
24678;DHT22;12800;53.094;8.778;2022-12-29T12:29:58;12.10;80.80
24678;DHT22;12800;53.094;8.778;2022-12-29T12:35:44;12.10;80.90
24678;DHT22;12800;53.094;8.778;2022-12-29T12:38:48;12.10;80.80
24678;DHT22;12800;53.094;8.778;2022-12-29T12:47:46;12.10;81.40
24678;DHT22;12800;53.094;8.778;2022-12-29T12:53:38;12.00;81.50
24678;DHT22;12800;53.094;8.778;2022-12-29T13:07:50;11.80;82.80
24678;DHT22;12800;53.094;8.778;2022-12-29T13:16:11;11.70;83.40
24678;DHT22;12800;53.094;8.778;2022-12-29T13:24:32;11.70;83.80
24678;DHT22;12800;53.094;8.778;2022-12-29T13:27:09;11.70;84.10
24678;DHT22;12800;53.094;8.778;2022-12-29T13:29:55;11.70;84.10
24678;DHT22;12800;53.094;8.778;2022-12-29T13:32:51;11.70;84.20
24678;DHT22;12800;53.094;8.778;2022-12-29T13:38:07;11.80;84.40
24678;DHT22;12800;53.094;8.778;2022-12-29T13:40:38;11.90;84.40
24678;DHT22;12800;53.094;8.778;2022-12-29T13:43:05;11.80;84.00
24678;DHT22;12800;53.094;8.778;2022-12-29T13:45:32;11.80;83.80
24678;DHT22;12800;53.094;8.778;2022-12-29T13:48:18;11.80;83.80
24678;DHT22;12800;53.094;8.778;2022-12-29T13:50:51;11.80;83.80
24678;DHT22;12800;53.094;8.778;2022-12-29T13:56:07;11.80;83.20
24678;DHT22;12800;53.094;8.778;2022-12-29T14:01:13;11.70;82.80
24678;DHT22;12800;53.094;8.778;2022-12-29T14:06:15;11.70;82.90
24678;DHT22;12800;53.094;8.778;2022-12-29T14:08:41;11.70;82.80
24678;DHT22;12800;53.094;8.778;2022-12-29T14:11:12;11.70;82.70
24678;DHT22;12800;53.094;8.778;2022-12-29T14:13:41;11.70;82.60
24678;DHT22;12800;53.094;8.778;2022-12-29T14:16:23;11.60;82.30
24678;DHT22;12800;53.094;8.778;2022-12-29T14:18:50;11.60;82.50
24678;DHT22;12800;53.094;8.778;2022-12-29T14:23:43;11.60;82.40
24678;DHT22;12800;53.094;8.778;2022-12-29T14:26:11;11.50;82.40
24678;DHT22;12800;53.094;8.778;2022-12-29T14:28:39;11.50;82.50
24678;DHT22;12800;53.094;8.778;2022-12-29T14:36:35;11.50;82.90
24678;DHT22;12800;53.094;8.778;2022-12-29T14:39:01;11.50;83.00
24678;DHT22;12800;53.094;8.778;2022-12-29T14:41:32;11.50;82.70
24678;DHT22;12800;53.094;8.778;2022-12-29T14:46:56;11.40;82.90
24678;DHT22;12800;53.094;8.778;2022-12-29T14:49:25;11.40;83.10
24678;DHT22;12800;53.094;8.778;2022-12-29T14:51:55;11.40;83.20
24678;DHT22;12800;53.094;8.778;2022-12-29T14:57:19;11.30;83.30
24678;DHT22;12800;53.094;8.778;2022-12-29T14:59:46;11.30;83.60
24678;DHT22;12800;53.094;8.778;2022-12-29T15:02:19;11.30;83.90
24678;DHT22;12800;53.094;8.778;2022-12-29T15:04:46;11.20;84.00
24678;DHT22;12800;53.094;8.778;2022-12-29T15:07:13;11.20;84.10
24678;DHT22;12800;53.094;8.778;2022-12-29T15:09:43;11.10;84.30
24678;DHT22;12800;53.094;8.778;2022-12-29T15:14:52;11.10;84.90
24678;DHT22;12800;53.094;8.778;2022-12-29T15:17:33;11.10;85.10
24678;DHT22;12800;53.094;8.778;2022-12-29T15:20:13;11.10;85.20
24678;DHT22;12800;53.094;8.778;2022-12-29T15:22:48;11.10;85.40
24678;DHT22;12800;53.094;8.778;2022-12-29T15:25:17;11.10;85.30
24678;DHT22;12800;53.094;8.778;2022-12-29T15:27:49;11.00;85.30
24678;DHT22;12800;53.094;8.778;2022-12-29T15:30:16;11.00;85.30
24678;DHT22;12800;53.094;8.778;2022-12-29T15:32:45;11.00;85.00
24678;DHT22;12800;53.094;8.778;2022-12-29T15:35:33;11.00;84.80
24678;DHT22;12800;53.094;8.778;2022-12-29T15:38:00;11.00;84.50
24678;DHT22;12800;53.094;8.778;2022-12-29T15:40:32;11.00;84.40
24678;DHT22;12800;53.094;8.778;2022-12-29T15:45:40;10.90;84.10
24678;DHT22;12800;53.094;8.778;2022-12-29T15:48:13;10.90;84.10
24678;DHT22;12800;53.094;8.778;2022-12-29T15:50:41;10.90;84.20
24678;DHT22;12800;53.094;8.778;2022-12-29T15:53:23;10.90;84.20
24678;DHT22;12800;53.094;8.778;2022-12-29T15:55:54;10.90;85.00
24678;DHT22;12800;53.094;8.778;2022-12-29T15:58:26;10.90;84.40
24678;DHT22;12800;53.094;8.778;2022-12-29T16:00:54;10.90;84.60
24678;DHT22;12800;53.094;8.778;2022-12-29T16:03:23;10.90;84.60
24678;DHT22;12800;53.094;8.778;2022-12-29T16:05:56;10.90;84.70
24678;DHT22;12800;53.094;8.778;2022-12-29T16:10:53;10.80;84.80
24678;DHT22;12800;53.094;8.778;2022-12-29T16:13:39;10.80;85.60
24678;DHT22;12800;53.094;8.778;2022-12-29T16:16:13;10.80;85.00
24678;DHT22;12800;53.094;8.778;2022-12-29T16:18:41;10.70;85.10
24678;DHT22;12800;53.094;8.778;2022-12-29T16:21:18;10.70;85.20
24678;DHT22;12800;53.094;8.778;2022-12-29T16:23:48;10.70;85.30
24678;DHT22;12800;53.094;8.778;2022-12-29T16:26:20;10.70;85.40
24678;DHT22;12800;53.094;8.778;2022-12-29T16:29:01;10.70;86.30
24678;DHT22;12800;53.094;8.778;2022-12-29T16:31:56;10.70;85.60
24678;DHT22;12800;53.094;8.778;2022-12-29T16:37:30;10.70;85.80
24678;DHT22;12800;53.094;8.778;2022-12-29T16:39:56;10.70;85.80
24678;DHT22;12800;53.094;8.778;2022-12-29T16:47:35;10.70;85.80
24678;DHT22;12800;53.094;8.778;2022-12-29T16:50:12;10.70;86.40
24678;DHT22;12800;53.094;8.778;2022-12-29T16:52:38;10.60;85.50
24678;DHT22;12800;53.094;8.778;2022-12-29T16:55:04;10.70;85.60
24678;DHT22;12800;53.094;8.778;2022-12-29T16:57:33;10.70;85.60
24678;DHT22;12800;53.094;8.778;2022-12-29T17:00:05;10.70;85.50
24678;DHT22;12800;53.094;8.778;2022-12-29T17:02:32;10.70;85.30
24678;DHT22;12800;53.094;8.778;2022-12-29T17:04:59;10.70;85.30
24678;DHT22;12800;53.094;8.778;2022-12-29T17:07:26;10.70;85.40
24678;DHT22;12800;53.094;8.778;2022-12-29T17:09:52;10.70;85.40
24678;DHT22;12800;53.094;8.778;2022-12-29T17:12:27;10.70;85.40
24678;DHT22;12800;53.094;8.778;2022-12-29T17:15:19;10.60;85.40
24678;DHT22;12800;53.094;8.778;2022-12-29T17:17:47;10.60;85.40
24678;DHT22;12800;53.094;8.778;2022-12-29T17:20:27;10.60;85.60
24678;DHT22;12800;53.094;8.778;2022-12-29T17:22:54;10.60;85.70
24678;DHT22;12800;53.094;8.778;2022-12-29T17:25:28;10.70;85.90
24678;DHT22;12800;53.094;8.778;2022-12-29T17:28:14;10.70;85.90
24678;DHT22;12800;53.094;8.778;2022-12-29T17:30:43;10.70;85.80
24678;DHT22;12800;53.094;8.778;2022-12-29T17:33:14;10.70;85.80
24678;DHT22;12800;53.094;8.778;2022-12-29T17:35:40;10.70;86.00
24678;DHT22;12800;53.094;8.778;2022-12-29T17:38:35;10.70;86.00
24678;DHT22;12800;53.094;8.778;2022-12-29T17:41:02;10.70;86.10
24678;DHT22;12800;53.094;8.778;2022-12-29T17:43:28;10.70;85.80
24678;DHT22;12800;53.094;8.778;2022-12-29T17:45:55;10.80;85.80
24678;DHT22;12800;53.094;8.778;2022-12-29T17:48:21;10.80;85.80
24678;DHT22;12800;53.094;8.778;2022-12-29T17:50:50;10.80;85.70
24678;DHT22;12800;53.094;8.778;2022-12-29T17:53:21;10.80;85.60
24678;DHT22;12800;53.094;8.778;2022-12-29T17:55:48;10.80;85.80
24678;DHT22;12800;53.094;8.778;2022-12-29T18:00:43;10.90;85.80
24678;DHT22;12800;53.094;8.778;2022-12-29T18:03:25;10.90;85.70
24678;DHT22;12800;53.094;8.778;2022-12-29T18:05:51;10.90;85.50
24678;DHT22;12800;53.094;8.778;2022-12-29T18:08:17;10.90;85.60
24678;DHT22;12800;53.094;8.778;2022-12-29T18:10:42;10.90;85.40
24678;DHT22;12800;53.094;8.778;2022-12-29T18:13:24;10.90;85.30
24678;DHT22;12800;53.094;8.778;2022-12-29T18:15:51;10.90;85.30
24678;DHT22;12800;53.094;8.778;2022-12-29T18:18:20;10.90;85.20
24678;DHT22;12800;53.094;8.778;2022-12-29T18:20:47;10.80;85.20